Amantha, North Carolina
Current Conditions -  °F | °C
As of 12:15 PM on Thursday 23 Oct 2014 (Local Time) from KTNB Reporting Station
Clear Clear  
Wind Chill: 45°   Ceiling: Unl
Heat Index: 50°   Visibility: 10mi
Dew Point: 33°   Wind: 14mph
Humidity: 53%   Direction: 280°W
Pressure: 30.12"   Gusts: 17mph
Location:  36.2666°N, 81.8431°W
Report Text: KTNB 231615Z AUTO 28012G15KT 10SM CLR 10/01 A3012 RMK AO2 T00990006
Loading
Personal Weather Stations






























Interactive Weather Map
Tropical Storm Tracking
New forecast layout! Learn more

10-Day Weather Forecast

Advertisements
Track Severe Weather on mobile